Campanya meteocatpedra

Dades EMA Ulldecona - els Valentins

?
?
Resum diari 22:30 TU
Dades diàries de l'estació meteorològica
Temperatura mitjana 22.0 °C
Temperatura màxima 29.0 °C 11:41 TU
Temperatura mínima 13.6 °C 3:01 TU
Humitat relativa mitjana 52%
Precipitació acumulada 0.0 mm
Ratxa màxima del vent (2 m) 25.9 km/h - 125º 13:48 TU
Irradiació solar global 30.9 MJ/m2

El tram horari està expressat en Temps Universal (TU). Cal sumar una hora en horari d'hivern i dues en horari d'estiu per passar a l'hora oficial.

Ulldecona - els Valentins

Metadades estació meteorol´gica
Municipi Ulldecona
Comarca Montsià
Altitud 210 m
Data alta 15.11.1990
Estat actual Operativa
Dades de període
Període
TU
TM
°C
TX
°C
TN
°C
HRM
%
PPT
mm
VVM (2 m)
km/h
DVM (2 m)
graus
VVX (2 m)
km/h
RS
W/m2
00:00 - 00:30 16.2 16.4 16.1 72 0.0 1.8 252 2.9 0
00:30 - 01:00 15.8 16.1 15.6 73 0.0 0.4 264 2.5 0
01:00 - 01:30 15.5 15.6 15.3 74 0.0 0.7 296 3.6 0
01:30 - 02:00 15.2 15.4 14.6 76 0.0 0.7 192 4.3 0
02:00 - 02:30 14.1 14.5 13.9 81 0.0 0.7 247 2.2 0
02:30 - 03:00 13.8 14.0 13.6 83 0.0 0.7 277 2.5 0
03:00 - 03:30 13.7 13.8 13.6 82 0.0 1.1 235 4.3 0
03:30 - 04:00 14.3 14.6 13.7 77 0.0 2.9 230 6.5 0
04:00 - 04:30 14.5 15.0 14.1 74 0.0 2.5 248 5.8 1
04:30 - 05:00 14.8 15.0 14.6 72 0.0 1.8 260 5.0 11
05:00 - 05:30 14.7 15.0 14.5 74 0.0 0.4 308 3.2 27
05:30 - 06:00 16.2 17.7 15.1 72 0.0 0.4 12 3.2 65
06:00 - 06:30 19.6 20.6 17.9 61 0.0 1.4 50 4.7 253
06:30 - 07:00 21.1 22.0 20.2 56 0.0 2.2 89 6.5 357
07:00 - 07:30 22.5 23.2 21.9 51 0.0 2.2 57 7.6 457
07:30 - 08:00 23.7 24.3 23.0 47 0.0 2.5 106 8.6 556
08:00 - 08:30 25.0 25.7 24.1 44 0.0 3.2 123 9.0 646
08:30 - 09:00 26.4 26.8 25.9 40 0.0 2.5 144 10.1 734
09:00 - 09:30 27.1 27.9 26.6 35 0.0 3.2 156 8.3 809
09:30 - 10:00 27.8 28.1 27.6 33 0.0 5.4 138 16.9 872
10:00 - 10:30 27.9 28.3 27.2 39 0.0 8.6 132 22.3 922
10:30 - 11:00 27.4 28.2 27.0 40 0.0 7.2 142 18.0 961
11:00 - 11:30 27.9 28.7 27.4 37 0.0 5.4 151 14.4 988
11:30 - 12:00 28.5 29.0 28.2 35 0.0 7.6 137 17.6 1.000
12:00 - 12:30 28.4 28.7 28.0 37 0.0 9.0 137 19.1 996
12:30 - 13:00 28.0 28.6 27.5 39 0.0 10.4 136 24.8 981
13:00 - 13:30 28.0 28.8 27.5 37 0.0 10.8 135 22.7 955
13:30 - 14:00 27.9 28.5 27.4 36 0.0 12.2 132 25.9 914
14:00 - 14:30 28.2 28.8 27.7 34 0.0 10.8 134 20.9 861
14:30 - 15:00 28.4 28.9 27.8 33 0.0 9.7 139 21.6 795
15:00 - 15:30 28.0 28.5 27.4 34 0.0 11.9 133 24.5 716
15:30 - 16:00 27.0 28.1 26.3 36 0.0 12.2 133 25.6 628
16:00 - 16:30 25.8 26.3 25.4 40 0.0 10.1 136 22.3 534
16:30 - 17:00 25.8 26.0 25.5 37 0.0 6.5 138 13.7 434
17:00 - 17:30 25.6 25.9 25.3 37 0.0 4.7 144 11.9 330
17:30 - 18:00 25.2 25.5 25.0 38 0.0 2.9 158 9.7 228
18:00 - 18:30 24.4 25.0 23.9 43 0.0 2.5 160 9.0 107
18:30 - 19:00 23.2 23.8 22.5 45 0.0 1.8 168 6.5 28
19:00 - 19:30 21.6 22.4 20.9 49 0.0 1.8 226 6.1 6
19:30 - 20:00 20.0 20.9 19.2 56 0.0 0.7 157 2.2 0
20:00 - 20:30 18.7 19.2 18.3 62 0.0 1.1 210 4.7 0
20:30 - 21:00 18.9 19.3 18.7 59 0.0 2.5 230 5.8 0
21:00 - 21:30 19.4 19.5 19.3 55 0.0 3.6 235 7.2 0
21:30 - 22:00 19.3 19.4 19.1 54 0.0 4.7 226 7.9 0
22:00 - 22:30 18.9 19.1 18.6 54 0.0 4.3 228 8.3 0
22:30 - 23:00 18.2 18.7 17.5 55 0.0 2.9 218 8.3 0

Les dades en taronja només han passat un control de qualitat automàtic. Resta pendent la seva validació definitiva.